createdAt,value
2022-08-02T00:00:35.982Z,38.10
2022-08-02T00:03:04.107Z,38.00
2022-08-02T00:05:32.278Z,38.10
2022-08-02T00:08:00.465Z,38.00
2022-08-02T00:10:28.731Z,38.10
2022-08-02T00:12:59.120Z,38.10
2022-08-02T00:15:28.923Z,38.10
2022-08-02T00:17:57.117Z,38.10
2022-08-02T00:20:25.264Z,38.20
2022-08-02T00:22:53.367Z,38.20
2022-08-02T00:25:21.569Z,38.30
2022-08-02T00:27:49.694Z,38.30
2022-08-02T00:30:17.856Z,38.30
2022-08-02T00:32:47.377Z,38.40
2022-08-02T00:35:16.219Z,38.40
2022-08-02T00:37:44.488Z,38.40
2022-08-02T00:40:13.452Z,38.30
2022-08-02T00:42:42.303Z,38.40
2022-08-02T00:45:11.113Z,38.40
2022-08-02T00:47:39.250Z,38.40
2022-08-02T00:50:09.729Z,38.40
2022-08-02T00:52:37.839Z,38.40
2022-08-02T00:55:06.928Z,38.40
2022-08-02T00:57:35.045Z,38.40
2022-08-02T01:00:03.262Z,38.50
2022-08-02T01:02:31.565Z,38.50
2022-08-02T01:04:59.781Z,38.50
2022-08-02T01:07:29.400Z,38.40
2022-08-02T01:09:57.569Z,38.40
2022-08-02T01:12:25.819Z,38.50
2022-08-02T01:14:57.868Z,38.50
2022-08-02T01:17:33.744Z,38.50
2022-08-02T01:20:10.494Z,38.60
2022-08-02T01:23:04.383Z,38.70
2022-08-02T01:25:54.520Z,38.70
2022-08-02T01:28:37.111Z,38.80
2022-08-02T01:31:13.693Z,38.90
2022-08-02T01:33:46.914Z,39.00
2022-08-02T01:36:18.713Z,39.10
2022-08-02T01:38:50.350Z,39.20
2022-08-02T01:41:22.717Z,39.50
2022-08-02T01:43:57.896Z,39.60
2022-08-02T01:46:28.109Z,39.70
2022-08-02T01:48:58.404Z,39.80
2022-08-02T01:51:43.120Z,40.00
2022-08-02T01:54:16.498Z,40.10
2022-08-02T01:56:46.575Z,40.20
2022-08-02T01:59:20.326Z,40.40
2022-08-02T02:01:50.787Z,40.60
2022-08-02T02:04:20.902Z,41.20
2022-08-02T02:06:50.391Z,40.80
2022-08-02T02:09:19.423Z,40.80
2022-08-02T02:12:06.050Z,40.90
2022-08-02T02:14:40.659Z,41.10
2022-08-02T02:18:10.704Z,41.10
2022-08-02T02:20:01.368Z,41.30
2022-08-02T02:22:29.492Z,41.40
2022-08-02T02:24:57.742Z,41.60
2022-08-02T02:27:26.686Z,41.90
2022-08-02T02:29:57.700Z,42.10
2022-08-02T02:32:28.490Z,42.40
2022-08-02T02:34:57.756Z,42.80
2022-08-02T02:37:29.170Z,43.10
2022-08-02T02:39:59.219Z,43.70
2022-08-02T02:42:32.302Z,44.00
2022-08-02T02:45:04.368Z,44.60
2022-08-02T02:47:41.115Z,44.90
2022-08-02T02:50:11.942Z,45.30
2022-08-02T02:52:41.628Z,45.80
2022-08-02T02:55:11.281Z,46.40
2022-08-02T02:57:40.145Z,47.00
2022-08-02T03:00:12.273Z,47.70
2022-08-02T03:02:42.352Z,48.20
2022-08-02T03:05:12.971Z,48.50
2022-08-02T03:07:41.634Z,48.90
2022-08-02T03:10:11.337Z,49.20
2022-08-02T03:12:39.887Z,49.50
2022-08-02T03:15:13.547Z,49.80
2022-08-02T03:17:43.642Z,50.10
2022-08-02T03:20:14.070Z,50.30
2022-08-02T03:22:42.878Z,50.50
2022-08-02T03:25:12.073Z,50.80
2022-08-02T03:27:40.415Z,51.10
2022-08-02T03:30:12.132Z,51.30
2022-08-02T03:32:41.701Z,51.70
2022-08-02T03:35:13.309Z,52.00
2022-08-02T03:37:42.719Z,52.30
2022-08-02T03:40:13.851Z,52.50
2022-08-02T03:42:42.605Z,52.80
2022-08-02T03:45:14.768Z,53.00
2022-08-02T03:47:44.247Z,53.60
2022-08-02T03:50:13.855Z,53.70
2022-08-02T03:52:43.536Z,53.90
2022-08-02T03:55:12.561Z,54.10
2022-08-02T03:57:41.203Z,54.20
2022-08-02T04:00:14.072Z,54.30
2022-08-02T04:02:42.174Z,54.30
2022-08-02T04:05:10.578Z,54.30
2022-08-02T04:08:33.112Z,54.00
2022-08-02T04:10:27.430Z,53.90
2022-08-02T04:12:56.446Z,53.60
2022-08-02T04:15:26.218Z,53.60
2022-08-02T04:17:57.799Z,53.50
2022-08-02T04:20:30.830Z,53.40
2022-08-02T04:23:02.632Z,53.40
2022-08-02T04:25:34.351Z,53.40
2022-08-02T04:28:17.511Z,53.40
2022-08-02T04:30:48.251Z,53.40
2022-08-02T04:33:16.824Z,53.50
2022-08-02T04:35:45.379Z,53.50
2022-08-02T04:38:15.622Z,53.50
2022-08-02T04:40:52.564Z,53.50
2022-08-02T04:43:21.088Z,53.50
2022-08-02T04:45:52.414Z,53.40
2022-08-02T04:48:20.672Z,53.40
2022-08-02T04:50:49.096Z,53.30
2022-08-02T04:53:17.533Z,53.90
2022-08-02T04:55:45.782Z,53.20
2022-08-02T04:58:38.921Z,53.10
2022-08-02T05:01:04.094Z,53.00
2022-08-02T05:03:32.355Z,52.80
2022-08-02T05:06:00.673Z,52.70
2022-08-02T05:08:28.887Z,52.60
2022-08-02T05:10:57.012Z,52.80
2022-08-02T05:13:25.721Z,53.00
2022-08-02T05:15:53.916Z,53.00
2022-08-02T05:18:23.364Z,53.00
2022-08-02T05:20:54.055Z,53.10
2022-08-02T05:23:26.040Z,53.10
2022-08-02T05:25:54.275Z,53.20
2022-08-02T05:28:22.454Z,53.20
2022-08-02T05:30:50.544Z,53.30
2022-08-02T05:33:18.976Z,53.30
2022-08-02T05:35:48.537Z,53.40
2022-08-02T05:38:16.650Z,53.40
2022-08-02T05:40:54.296Z,53.40
2022-08-02T05:43:23.359Z,53.30
2022-08-02T05:45:53.663Z,53.20
2022-08-02T05:48:24.495Z,53.10
2022-08-02T05:51:06.284Z,53.10
2022-08-02T05:53:40.582Z,53.30
2022-08-02T05:56:19.601Z,53.30
2022-08-02T05:58:58.095Z,53.40
2022-08-02T06:01:30.219Z,53.50
2022-08-02T06:04:00.783Z,53.50
2022-08-02T06:06:33.431Z,53.50
2022-08-02T06:09:04.436Z,53.70
2022-08-02T06:11:37.280Z,53.70
2022-08-02T06:14:07.075Z,53.70
2022-08-02T06:16:41.922Z,53.70
2022-08-02T06:19:12.795Z,53.80
2022-08-02T06:22:36.111Z,53.80
2022-08-02T06:24:33.772Z,53.90
2022-08-02T06:27:03.460Z,53.90
2022-08-02T06:29:38.821Z,53.90
2022-08-02T06:32:09.844Z,53.80
2022-08-02T06:34:38.976Z,53.80
2022-08-02T06:37:20.667Z,53.70
2022-08-02T06:39:50.807Z,53.70
2022-08-02T06:42:27.562Z,53.50
2022-08-02T06:44:57.960Z,53.40
2022-08-02T06:47:27.161Z,53.10
2022-08-02T06:49:58.354Z,52.90
2022-08-02T06:52:30.260Z,52.50
2022-08-02T06:54:59.723Z,52.20
2022-08-02T06:57:28.674Z,52.10
2022-08-02T06:59:58.354Z,51.90
2022-08-02T07:02:26.577Z,51.60
2022-08-02T07:04:55.565Z,51.50
2022-08-02T07:07:23.910Z,51.30
2022-08-02T07:09:56.415Z,51.10
2022-08-02T07:12:30.083Z,50.80
2022-08-02T07:14:59.113Z,50.50
2022-08-02T07:17:27.686Z,50.20
2022-08-02T07:19:56.019Z,49.90
2022-08-02T07:22:24.623Z,49.80
2022-08-02T07:24:54.600Z,49.40
2022-08-02T07:27:22.988Z,49.10
2022-08-02T07:29:51.118Z,49.00
2022-08-02T07:32:20.523Z,49.00
2022-08-02T07:34:51.305Z,48.90
2022-08-02T07:37:53.550Z,48.60
2022-08-02T07:40:15.161Z,48.30
2022-08-02T07:42:49.373Z,48.10
2022-08-02T07:45:17.799Z,48.00
2022-08-02T07:47:46.451Z,47.70
2022-08-02T07:50:16.355Z,47.40
2022-08-02T07:52:45.923Z,47.20
2022-08-02T07:55:17.844Z,46.90
2022-08-02T07:57:47.133Z,46.50
2022-08-02T08:00:17.777Z,46.30
2022-08-02T08:02:47.139Z,46.00
2022-08-02T08:05:15.874Z,45.60
2022-08-02T08:07:44.208Z,45.30
2022-08-02T08:10:12.606Z,45.20
2022-08-02T08:12:42.119Z,44.50
2022-08-02T08:15:11.364Z,44.20
2022-08-02T08:17:39.838Z,43.60
2022-08-02T08:20:12.805Z,43.20
2022-08-02T08:22:43.545Z,43.00
2022-08-02T08:25:12.044Z,42.70
2022-08-02T08:27:49.327Z,42.40
2022-08-02T08:30:17.605Z,42.10
2022-08-02T08:32:46.433Z,42.00
2022-08-02T08:35:14.933Z,41.80
2022-08-02T08:37:43.336Z,41.50
2022-08-02T08:40:12.927Z,41.20
2022-08-02T08:42:42.460Z,41.10
2022-08-02T08:45:11.387Z,40.90
2022-08-02T08:47:40.986Z,40.80
2022-08-02T08:50:18.890Z,40.60
2022-08-02T08:52:54.734Z,40.40
2022-08-02T08:55:24.560Z,40.20
2022-08-02T08:57:55.951Z,39.80
2022-08-02T09:00:24.174Z,39.50
2022-08-02T09:02:52.487Z,39.30
2022-08-02T09:05:20.976Z,39.20
2022-08-02T09:07:50.141Z,39.10
2022-08-02T09:10:39.253Z,38.90
2022-08-02T09:13:38.954Z,38.80
2022-08-02T09:16:11.163Z,38.80
2022-08-02T09:18:41.541Z,38.90
2022-08-02T09:21:11.109Z,38.90
2022-08-02T09:23:40.946Z,38.90
2022-08-02T09:26:10.883Z,38.80
2022-08-02T09:28:42.566Z,38.80
2022-08-02T09:31:14.546Z,38.50
2022-08-02T09:33:44.239Z,38.50
2022-08-02T09:36:13.878Z,38.40
2022-08-02T09:38:52.831Z,38.30
2022-08-02T09:41:25.267Z,38.00
2022-08-02T09:44:04.363Z,37.80
2022-08-02T09:46:37.366Z,37.70
2022-08-02T09:49:08.240Z,37.40
2022-08-02T09:51:38.389Z,37.20
2022-08-02T09:54:09.426Z,37.10
2022-08-02T09:56:49.643Z,37.10
2022-08-02T09:59:20.946Z,37.00
2022-08-02T10:02:01.484Z,36.90
2022-08-02T10:04:52.048Z,36.70
2022-08-02T10:07:22.513Z,37.20
2022-08-02T10:09:51.903Z,36.50
2022-08-02T10:12:22.229Z,36.50
2022-08-02T10:14:52.840Z,36.40
2022-08-02T10:17:22.005Z,36.50
2022-08-02T10:20:02.372Z,36.30
2022-08-02T10:22:33.381Z,35.90
2022-08-02T10:25:04.668Z,35.40
2022-08-02T10:27:49.196Z,34.90
2022-08-02T10:30:25.896Z,34.40
2022-08-02T10:32:56.478Z,34.00
2022-08-02T10:35:26.962Z,33.60
2022-08-02T10:38:01.128Z,33.20
2022-08-02T10:40:44.654Z,32.70
2022-08-02T10:43:13.338Z,32.20
2022-08-02T10:45:44.189Z,32.00
2022-08-02T10:48:15.551Z,31.60
2022-08-02T10:50:56.872Z,31.40
2022-08-02T10:53:28.047Z,30.80
2022-08-02T10:55:58.667Z,30.40
2022-08-02T10:58:30.165Z,30.00
2022-08-02T11:01:04.248Z,29.80
2022-08-02T11:03:42.706Z,29.50
2022-08-02T11:06:24.986Z,29.10
2022-08-02T11:09:31.745Z,29.00
2022-08-02T11:12:05.373Z,28.70
2022-08-02T11:14:35.646Z,28.60
2022-08-02T11:17:13.660Z,28.50
2022-08-02T11:20:18.953Z,28.20
2022-08-02T11:22:50.240Z,27.90
2022-08-02T11:26:02.828Z,27.80
2022-08-02T11:28:26.280Z,27.50
2022-08-02T11:30:58.946Z,27.50
2022-08-02T11:33:34.010Z,27.20
2022-08-02T11:36:04.053Z,26.90
2022-08-02T11:38:32.242Z,26.70
2022-08-02T11:41:05.854Z,26.50
2022-08-02T11:43:34.819Z,26.20
2022-08-02T11:46:05.187Z,26.10
2022-08-02T11:48:36.971Z,25.80
2022-08-02T11:51:07.454Z,25.60
2022-08-02T11:53:50.165Z,25.40
2022-08-02T11:56:21.873Z,25.60
2022-08-02T11:59:07.498Z,25.10
2022-08-02T12:01:45.521Z,25.00
2022-08-02T12:04:22.768Z,25.00
2022-08-02T12:06:59.579Z,24.80
2022-08-02T12:09:29.195Z,24.70
2022-08-02T12:11:58.569Z,24.70
2022-08-02T12:14:28.957Z,24.60
2022-08-02T12:17:15.199Z,24.50
2022-08-02T12:19:45.509Z,24.60
2022-08-02T12:22:17.585Z,24.40
2022-08-02T12:24:48.034Z,24.30
2022-08-02T12:27:36.897Z,24.20
2022-08-02T12:30:10.214Z,24.00
2022-08-02T12:32:39.428Z,24.00
2022-08-02T12:35:11.909Z,24.10
2022-08-02T12:37:41.700Z,24.20
2022-08-02T12:40:25.442Z,24.20
2022-08-02T12:42:57.171Z,24.30
2022-08-02T12:45:26.716Z,24.60
2022-08-02T12:48:05.266Z,24.70
2022-08-02T12:50:37.421Z,24.90
2022-08-02T12:53:08.140Z,25.20
2022-08-02T12:55:59.231Z,25.40
2022-08-02T12:58:28.876Z,26.10
2022-08-02T13:00:59.913Z,25.90
2022-08-02T13:04:11.465Z,26.00
2022-08-02T13:06:43.098Z,26.10
2022-08-02T13:09:14.832Z,26.30
2022-08-02T13:11:43.963Z,26.40
2022-08-02T13:14:13.008Z,26.60
2022-08-02T13:16:42.532Z,26.70
2022-08-02T13:19:11.284Z,26.90
2022-08-02T13:22:02.690Z,27.00
2022-08-02T13:24:38.084Z,27.10
2022-08-02T13:27:08.621Z,27.20
2022-08-02T13:29:37.537Z,27.30
2022-08-02T13:32:05.922Z,27.50
2022-08-02T13:34:34.126Z,27.50
2022-08-02T13:37:04.607Z,27.60
2022-08-02T13:39:32.931Z,27.70
2022-08-02T13:42:01.053Z,27.70
2022-08-02T13:44:29.305Z,27.80
2022-08-02T13:46:57.452Z,27.80
2022-08-02T13:49:51.499Z,27.80
2022-08-02T13:52:15.770Z,27.90
2022-08-02T13:54:44.292Z,28.00
2022-08-02T13:57:12.409Z,28.00
2022-08-02T13:59:56.570Z,28.10
2022-08-02T14:02:28.161Z,28.20
2022-08-02T14:04:56.817Z,28.30
2022-08-02T14:07:26.334Z,28.40
2022-08-02T14:09:54.430Z,28.50
2022-08-02T14:12:22.532Z,28.50
2022-08-02T14:14:50.945Z,28.50
2022-08-02T14:17:19.793Z,28.50
2022-08-02T14:19:47.990Z,28.60
2022-08-02T14:22:16.124Z,28.60
2022-08-02T14:24:45.720Z,28.60
2022-08-02T14:27:13.852Z,28.70
2022-08-02T14:29:42.001Z,28.70
2022-08-02T14:32:10.856Z,28.70
2022-08-02T14:34:39.342Z,28.80
2022-08-02T14:37:07.466Z,28.90
2022-08-02T14:39:43.306Z,28.90
2022-08-02T14:42:25.167Z,28.90
2022-08-02T14:44:53.590Z,29.10
2022-08-02T14:47:21.678Z,29.10
2022-08-02T14:49:50.632Z,29.00
2022-08-02T14:52:19.317Z,29.00
2022-08-02T14:54:47.584Z,29.00
2022-08-02T14:57:15.844Z,29.10
2022-08-02T14:59:45.389Z,29.00
2022-08-02T15:02:14.465Z,29.00
2022-08-02T15:04:44.032Z,29.00
2022-08-02T15:07:15.326Z,29.00
2022-08-02T15:09:43.470Z,29.00
2022-08-02T15:12:12.741Z,29.00
2022-08-02T15:14:41.598Z,29.10
2022-08-02T15:17:11.793Z,29.20
2022-08-02T15:19:57.874Z,29.10
2022-08-02T15:22:28.968Z,29.10
2022-08-02T15:24:57.703Z,29.20
2022-08-02T15:27:26.223Z,29.20
2022-08-02T15:30:00.031Z,29.20
2022-08-02T15:32:29.918Z,29.20
2022-08-02T15:34:58.141Z,29.30
2022-08-02T15:37:30.835Z,29.30
2022-08-02T15:39:59.702Z,29.40
2022-08-02T15:42:30.597Z,29.40
2022-08-02T15:45:00.090Z,29.40
2022-08-02T15:47:29.666Z,29.40
2022-08-02T15:49:58.669Z,29.60
2022-08-02T15:52:27.654Z,29.50
2022-08-02T15:54:56.158Z,29.50
2022-08-02T15:57:24.292Z,29.60
2022-08-02T15:59:53.193Z,29.50
2022-08-02T16:02:21.529Z,29.60
2022-08-02T16:04:51.435Z,30.00
2022-08-02T16:07:19.553Z,29.70
2022-08-02T16:09:47.683Z,30.10
2022-08-02T16:12:16.245Z,29.70
2022-08-02T16:14:45.538Z,29.70
2022-08-02T16:17:13.658Z,29.70
2022-08-02T16:19:48.738Z,29.70
2022-08-02T16:22:18.840Z,29.70
2022-08-02T16:24:47.046Z,29.80
2022-08-02T16:27:15.624Z,29.70
2022-08-02T16:29:43.850Z,29.80
2022-08-02T16:32:12.506Z,29.80
2022-08-02T16:35:07.079Z,29.80
2022-08-02T16:37:50.273Z,29.90
2022-08-02T16:40:18.582Z,29.90
2022-08-02T16:42:48.783Z,30.00
2022-08-02T16:45:20.935Z,29.90
2022-08-02T16:47:57.408Z,30.00
2022-08-02T16:50:29.099Z,30.00
2022-08-02T16:52:59.375Z,30.00
2022-08-02T16:55:29.289Z,30.10
2022-08-02T16:58:00.454Z,30.00
2022-08-02T17:00:29.822Z,30.10
2022-08-02T17:02:59.536Z,30.10
2022-08-02T17:05:37.485Z,30.20
2022-08-02T17:08:17.185Z,30.20
2022-08-02T17:10:45.879Z,30.30
2022-08-02T17:13:14.529Z,30.50
2022-08-02T17:16:15.849Z,30.80
2022-08-02T17:18:33.133Z,31.00
2022-08-02T17:21:04.091Z,31.30
2022-08-02T17:24:04.248Z,31.60
2022-08-02T17:26:23.059Z,32.20
2022-08-02T17:29:18.053Z,32.60
2022-08-02T17:32:05.034Z,33.00
2022-08-02T17:34:36.307Z,33.30
2022-08-02T17:37:05.688Z,33.60
2022-08-02T17:39:44.157Z,34.40
2022-08-02T17:42:20.436Z,34.20
2022-08-02T17:44:52.740Z,34.30
2022-08-02T17:47:21.845Z,34.60
2022-08-02T17:49:50.168Z,34.80
2022-08-02T17:52:50.106Z,35.00
2022-08-02T17:55:13.355Z,35.20
2022-08-02T17:57:57.389Z,35.40
2022-08-02T18:00:33.690Z,35.50
2022-08-02T18:03:05.720Z,35.80
2022-08-02T18:05:39.096Z,35.90
2022-08-02T18:08:07.810Z,36.00
2022-08-02T18:10:37.443Z,36.20
2022-08-02T18:13:06.608Z,36.40
2022-08-02T18:15:35.936Z,36.50
2022-08-02T18:18:04.222Z,36.70
2022-08-02T18:20:32.367Z,36.80
2022-08-02T18:23:00.583Z,37.00
2022-08-02T18:25:37.013Z,37.20
2022-08-02T18:28:13.616Z,37.40
2022-08-02T18:30:41.800Z,37.50
2022-08-02T18:33:59.319Z,37.70
2022-08-02T18:35:58.102Z,37.80
2022-08-02T18:38:28.372Z,38.00
2022-08-02T18:40:58.760Z,38.10
2022-08-02T18:43:29.512Z,38.30
2022-08-02T18:46:07.035Z,38.40
2022-08-02T18:48:46.218Z,38.50
2022-08-02T18:51:16.091Z,38.60
2022-08-02T18:53:48.921Z,38.80
2022-08-02T18:56:19.829Z,38.90
2022-08-02T18:58:55.250Z,39.00
2022-08-02T19:01:32.184Z,39.20
2022-08-02T19:04:02.713Z,39.30
2022-08-02T19:06:31.399Z,39.40
2022-08-02T19:09:11.582Z,39.60
2022-08-02T19:11:47.234Z,39.70
2022-08-02T19:17:16.067Z,39.90
2022-08-02T19:19:56.054Z,40.00
2022-08-02T19:22:26.686Z,40.10
2022-08-02T19:25:16.024Z,40.20
2022-08-02T19:27:47.487Z,40.40
2022-08-02T19:30:18.258Z,40.50
2022-08-02T19:32:59.291Z,40.60
2022-08-02T19:35:34.398Z,40.80
2022-08-02T19:38:10.604Z,40.90
2022-08-02T19:40:41.734Z,41.10
2022-08-02T19:44:25.530Z,41.10
2022-08-02T19:46:00.271Z,41.30
2022-08-02T19:48:29.013Z,41.40
2022-08-02T19:51:00.556Z,41.50
2022-08-02T19:53:47.777Z,41.80
2022-08-02T19:56:21.000Z,41.70
2022-08-02T19:58:51.280Z,41.90
2022-08-02T20:01:28.044Z,42.00
2022-08-02T20:04:05.127Z,42.20
2022-08-02T20:06:33.238Z,42.30
2022-08-02T20:09:02.276Z,42.40
2022-08-02T20:11:34.700Z,42.70
2022-08-02T20:14:05.327Z,42.70
2022-08-02T20:16:35.614Z,42.90
2022-08-02T20:19:05.027Z,43.00
2022-08-02T20:21:35.764Z,43.20
2022-08-02T20:24:06.643Z,43.20
2022-08-02T20:26:35.471Z,43.40
2022-08-02T20:29:04.255Z,43.40
2022-08-02T20:31:32.479Z,43.50
2022-08-02T20:34:02.008Z,43.70
2022-08-02T20:36:30.199Z,43.90
2022-08-02T20:38:58.322Z,44.00
2022-08-02T20:41:37.007Z,44.10
2022-08-02T20:44:15.751Z,44.20
2022-08-02T20:46:44.685Z,44.30
2022-08-02T20:49:21.679Z,44.40
2022-08-02T20:51:53.894Z,44.60
2022-08-02T20:54:22.720Z,44.60
2022-08-02T20:56:51.219Z,44.70
2022-08-02T20:59:21.427Z,44.90
2022-08-02T21:01:57.012Z,45.00
2022-08-02T21:04:27.337Z,45.10
2022-08-02T21:06:59.085Z,45.30
2022-08-02T21:09:52.642Z,45.40
2022-08-02T21:12:15.913Z,45.50
2022-08-02T21:14:44.153Z,45.70
2022-08-02T21:17:18.027Z,45.80
2022-08-02T21:20:08.317Z,45.90
2022-08-02T21:22:36.530Z,46.00
2022-08-02T21:25:08.910Z,46.00
2022-08-02T21:27:53.164Z,46.20
2022-08-02T21:30:24.979Z,46.30
2022-08-02T21:32:54.767Z,46.40
2022-08-02T21:35:26.876Z,46.40
2022-08-02T21:37:58.176Z,46.60
2022-08-02T21:40:27.078Z,46.70
2022-08-02T21:42:55.305Z,46.90
2022-08-02T21:45:23.511Z,46.90
2022-08-02T21:47:51.757Z,47.00
2022-08-02T21:50:20.179Z,47.10
2022-08-02T21:52:51.998Z,47.20
2022-08-02T21:55:24.133Z,47.40
2022-08-02T21:58:09.662Z,47.40
2022-08-02T22:00:38.327Z,47.50
2022-08-02T22:03:22.582Z,47.50
2022-08-02T22:05:51.697Z,47.50
2022-08-02T22:08:21.193Z,47.50
2022-08-02T22:11:04.172Z,47.70
2022-08-02T22:13:47.240Z,47.80
2022-08-02T22:16:18.540Z,47.90
2022-08-02T22:18:51.333Z,48.00
2022-08-02T22:21:22.938Z,48.10
2022-08-02T22:23:53.972Z,48.30
2022-08-02T22:26:22.176Z,48.40
2022-08-02T22:28:59.315Z,48.30
2022-08-02T22:31:40.393Z,48.50
2022-08-02T22:34:11.646Z,48.50
2022-08-02T22:36:55.402Z,48.60
2022-08-02T22:39:24.918Z,48.70
2022-08-02T22:42:02.079Z,48.90
2022-08-02T22:44:35.842Z,49.60
2022-08-02T22:47:07.479Z,49.00
2022-08-02T22:49:51.573Z,49.20
2022-08-02T22:52:22.829Z,49.30
2022-08-02T22:54:54.824Z,49.30
2022-08-02T22:57:30.879Z,49.40
2022-08-02T22:58:58.667Z,40.40
2022-08-02T23:00:00.528Z,49.40
2022-08-02T23:02:29.962Z,49.50
2022-08-02T23:04:58.535Z,49.60
2022-08-02T23:07:26.696Z,49.70
2022-08-02T23:09:56.289Z,49.80
2022-08-02T23:12:24.605Z,49.90
2022-08-02T23:14:53.474Z,49.90
2022-08-02T23:17:39.199Z,50.00
2022-08-02T23:20:09.674Z,50.00
2022-08-02T23:22:38.080Z,50.00
2022-08-02T23:25:08.770Z,50.10
2022-08-02T23:27:37.154Z,50.20
2022-08-02T23:30:06.625Z,50.30
2022-08-02T23:32:34.843Z,50.30
2022-08-02T23:35:03.019Z,50.40
2022-08-02T23:37:58.059Z,50.40
2022-08-02T23:40:39.727Z,50.50
2022-08-02T23:43:13.488Z,50.60
2022-08-02T23:45:44.129Z,50.50
2022-08-02T23:48:12.341Z,50.70
2022-08-02T23:50:40.651Z,50.80
2022-08-02T23:53:08.805Z,50.80
2022-08-02T23:55:38.311Z,50.90
2022-08-02T23:58:06.460Z,51.00
